Time;durP1;ratioP1;P1;durP2;ratioP2;P2;SDS_P1;SDS_P2;PMS_P1;PMS_P2;Temp;Humidity;BMP_temperature;BMP_pressure;BME280_temperature;BME280_humidity;BME280_pressure;Samples;Min_cycle;Max_cycle;Signal;HPM_P1;HPM_P2
2023/07/31 00:00:38;;;;;;;19.10;16.10;;;;;;;;;;4952234;28;20027;-57
2023/07/31 00:03:04;;;;;;;18.77;15.63;;;;;;;;;;4952166;28;20038;-52
2023/07/31 00:05:30;;;;;;;18.15;14.35;;;;;;;;;;4951094;28;20055;-56
2023/07/31 00:07:55;;;;;;;17.58;14.30;;;;;;;;;;4951669;28;20031;-56
2023/07/31 00:10:22;;;;;;;17.42;15.15;;;;;;;;;;4951978;28;20028;-49
2023/07/31 00:12:48;;;;;;;16.90;15.07;;;;;;;;;;4952035;28;20034;-56
2023/07/31 00:15:14;;;;;;;17.65;14.70;;;;;;;;;;4951152;28;20095;-55
2023/07/31 00:17:40;;;;;;;18.02;15.20;;;;;;;;;;4951816;28;20391;-53
2023/07/31 00:20:06;;;;;;;18.45;14.70;;;;;;;;;;4951823;28;20106;-57
2023/07/31 00:22:32;;;;;;;16.73;13.52;;;;;;;;;;4955360;29;20054;-51
2023/07/31 00:24:59;;;;;;;18.33;16.33;;;;;;;;;;4952042;28;20032;-53
2023/07/31 00:27:25;;;;;;;16.75;14.23;;;;;;;;;;4974501;22;20035;-63
2023/07/31 00:29:51;;;;;;;17.23;14.50;;;;;;;;;;4974066;28;20038;-61
2023/07/31 00:32:17;;;;;;;17.50;13.75;;;;;;;;;;4989739;28;20061;-64
2023/07/31 00:34:43;;;;;;;16.65;14.18;;;;;;;;;;4973224;28;20117;-64
2023/07/31 00:37:09;;;;;;;16.90;13.88;;;;;;;;;;4970062;28;20023;-63
2023/07/31 00:39:35;;;;;;;17.10;14.55;;;;;;;;;;4954869;28;20031;-64
2023/07/31 00:42:01;;;;;;;16.67;14.63;;;;;;;;;;4954903;28;20073;-63
2023/07/31 00:44:27;;;;;;;16.35;13.90;;;;;;;;;;4954223;28;20042;-62
2023/07/31 00:46:54;;;;;;;16.70;14.32;;;;;;;;;;4953501;28;20053;-63
2023/07/31 00:49:21;;;;;;;17.27;15.00;;;;;;;;;;4954301;28;20382;-63
2023/07/31 00:51:47;;;;;;;18.10;16.20;;;;;;;;;;4953281;28;20110;-65
2023/07/31 00:54:13;;;;;;;21.10;19.08;;;;;;;;;;4953124;28;20035;-63
2023/07/31 00:56:39;;;;;;;18.90;16.90;;;;;;;;;;5058012;28;20453;-65
2023/07/31 00:59:05;;;;;;;19.23;17.33;;;;;;;;;;5074366;28;20060;-64
2023/07/31 01:01:31;;;;;;;18.85;16.85;;;;;;;;;;5074691;28;20062;-65
2023/07/31 01:03:57;;;;;;;18.45;16.50;;;;;;;;;;5073918;28;20077;-61
2023/07/31 01:06:41;;;;;;;23.05;20.95;;;;;;;;;;5005823;28;20391;-61
2023/07/31 01:09:19;;;;;;;24.75;22.48;;;;;;;;;;4971821;28;20117;-63
2023/07/31 01:11:57;;;;;;;26.73;24.33;;;;;;;;;;4973180;28;20061;-63
2023/07/31 01:14:23;;;;;;;25.60;23.40;;;;;;;;;;4972179;28;20480;-63
2023/07/31 01:16:49;;;;;;;25.67;23.38;;;;;;;;;;4972095;28;20098;-63
2023/07/31 01:19:16;;;;;;;23.55;21.45;;;;;;;;;;4973212;28;20050;-63
2023/07/31 01:21:52;;;;;;;25.23;23.02;;;;;;;;;;4971776;28;20039;-63
2023/07/31 01:24:40;;;;;;;25.83;23.60;;;;;;;;;;4972525;28;20144;-64
2023/07/31 01:27:16;;;;;;;24.90;22.70;;;;;;;;;;4973015;28;20461;-63
2023/07/31 01:29:51;;;;;;;25.35;22.95;;;;;;;;;;4971978;28;20289;-62
2023/07/31 01:32:18;;;;;;;25.17;22.88;;;;;;;;;;4972641;28;20027;-64
2023/07/31 01:34:44;;;;;;;27.65;25.25;;;;;;;;;;4970839;28;20038;-62
2023/07/31 01:37:10;;;;;;;26.17;23.77;;;;;;;;;;4956128;28;20058;-65
2023/07/31 01:39:36;;;;;;;24.88;22.58;;;;;;;;;;4952139;28;20031;-62
2023/07/31 01:42:02;;;;;;;25.17;22.98;;;;;;;;;;4952785;28;20043;-63
2023/07/31 01:44:28;;;;;;;25.95;23.65;;;;;;;;;;4950270;28;20068;-63
2023/07/31 01:46:54;;;;;;;25.05;22.85;;;;;;;;;;4951142;28;20110;-62
2023/07/31 01:49:20;;;;;;;24.67;22.35;;;;;;;;;;4952514;28;20467;-63
2023/07/31 01:51:46;;;;;;;23.83;21.63;;;;;;;;;;4952411;28;20024;-63
2023/07/31 01:54:12;;;;;;;25.35;22.92;;;;;;;;;;4951182;28;20058;-62
2023/07/31 01:56:38;;;;;;;23.88;21.77;;;;;;;;;;4951256;28;20024;-63
2023/07/31 01:59:04;;;;;;;24.20;22.08;;;;;;;;;;4957146;28;20015;-62
2023/07/31 02:01:30;;;;;;;23.85;21.65;;;;;;;;;;4971805;28;20110;-63
2023/07/31 02:03:57;;;;;;;24.20;21.90;;;;;;;;;;4971297;28;20578;-62
2023/07/31 02:06:23;;;;;;;23.17;21.05;;;;;;;;;;4961831;28;20434;-63
2023/07/31 02:08:49;;;;;;;24.08;21.88;;;;;;;;;;4954646;28;20042;-63
2023/07/31 02:11:15;;;;;;;25.02;22.80;;;;;;;;;;4953953;28;20027;-63
2023/07/31 02:13:41;;;;;;;25.20;22.90;;;;;;;;;;4954392;28;20082;-62
2023/07/31 02:16:07;;;;;;;27.27;24.77;;;;;;;;;;4955300;28;20525;-63
2023/07/31 02:18:33;;;;;;;27.38;24.58;;;;;;;;;;4956055;28;20098;-62
2023/07/31 02:20:59;;;;;;;26.27;23.65;;;;;;;;;;4955491;28;20028;-62
2023/07/31 02:23:25;;;;;;;29.65;26.65;;;;;;;;;;4955898;28;20076;-63
2023/07/31 02:25:51;;;;;;;28.23;25.30;;;;;;;;;;4954569;28;20035;-62
2023/07/31 02:28:17;;;;;;;28.23;25.10;;;;;;;;;;4955326;28;20042;-63
2023/07/31 02:30:46;;;;;;;33.67;26.23;;;;;;;;;;4953997;28;20023;-63
2023/07/31 02:33:12;;;;;;;35.95;28.85;;;;;;;;;;4955283;28;20081;-62
2023/07/31 02:35:38;;;;;;;36.00;29.60;;;;;;;;;;4954530;28;20030;-62
2023/07/31 02:38:04;;;;;;;36.22;28.95;;;;;;;;;;4954888;28;20028;-63
2023/07/31 02:40:30;;;;;;;35.72;29.00;;;;;;;;;;4972125;28;20114;-62
2023/07/31 02:42:56;;;;;;;35.35;28.42;;;;;;;;;;4973120;28;20421;-62
2023/07/31 02:45:22;;;;;;;40.35;30.17;;;;;;;;;;4973481;28;20037;-63
2023/07/31 02:47:48;;;;;;;36.08;28.73;;;;;;;;;;4974213;28;20076;-61
2023/07/31 02:50:14;;;;;;;39.05;30.33;;;;;;;;;;4974373;28;20033;-62
2023/07/31 02:52:40;;;;;;;36.50;28.70;;;;;;;;;;4974318;28;20066;-61
2023/07/31 02:55:06;;;;;;;36.53;29.08;;;;;;;;;;4973783;28;20516;-63
2023/07/31 02:57:32;;;;;;;36.33;30.15;;;;;;;;;;4973955;28;20677;-61
2023/07/31 02:59:58;;;;;;;34.97;27.27;;;;;;;;;;4973958;28;20067;-61
2023/07/31 03:02:24;;;;;;;30.63;26.05;;;;;;;;;;4974515;28;20072;-62
2023/07/31 03:04:50;;;;;;;34.42;27.17;;;;;;;;;;4972632;28;20035;-63
2023/07/31 03:07:16;;;;;;;29.10;25.42;;;;;;;;;;4972401;28;20513;-63
2023/07/31 03:09:42;;;;;;;31.20;23.77;;;;;;;;;;4972719;28;20034;-65
2023/07/31 03:12:08;;;;;;;34.35;25.05;;;;;;;;;;4974179;28;20038;-62
2023/07/31 03:14:34;;;;;;;31.65;25.05;;;;;;;;;;4972767;28;20131;-63
2023/07/31 03:17:00;;;;;;;39.03;26.58;;;;;;;;;;4973302;28;20062;-62
2023/07/31 03:19:26;;;;;;;30.65;24.45;;;;;;;;;;4974683;28;20027;-62
2023/07/31 03:21:52;;;;;;;36.28;27.02;;;;;;;;;;4974346;28;20080;-63
2023/07/31 03:24:18;;;;;;;32.33;25.27;;;;;;;;;;4972711;28;20050;-63
2023/07/31 03:26:44;;;;;;;37.53;26.45;;;;;;;;;;4975119;28;20019;-63
2023/07/31 03:29:10;;;;;;;29.77;23.77;;;;;;;;;;4974888;28;20041;-61
2023/07/31 03:31:36;;;;;;;34.20;25.30;;;;;;;;;;4974473;28;20046;-62
2023/07/31 03:34:02;;;;;;;34.03;26.73;;;;;;;;;;4974583;28;20049;-63
2023/07/31 03:36:28;;;;;;;31.27;25.05;;;;;;;;;;4973875;28;20034;-65
2023/07/31 03:38:54;;;;;;;26.42;22.00;;;;;;;;;;4958961;28;20494;-63
2023/07/31 03:41:20;;;;;;;34.72;24.60;;;;;;;;;;4974293;28;20125;-63
2023/07/31 03:43:55;;;;;;;29.48;24.15;;;;;;;;;;4973985;28;20577;-62
2023/07/31 03:46:21;;;;;;;30.63;25.33;;;;;;;;;;4973450;28;20474;-63
2023/07/31 03:48:47;;;;;;;31.13;23.67;;;;;;;;;;4974523;28;20038;-62
2023/07/31 03:51:13;;;;;;;30.45;23.98;;;;;;;;;;4974783;28;20031;-63
2023/07/31 03:53:39;;;;;;;30.85;24.52;;;;;;;;;;4974907;28;20506;-63
2023/07/31 03:56:05;;;;;;;29.08;24.25;;;;;;;;;;4973345;28;20070;-63
2023/07/31 03:58:31;;;;;;;28.35;24.38;;;;;;;;;;4974451;28;20015;-62
2023/07/31 04:00:57;;;;;;;31.20;24.33;;;;;;;;;;4974035;28;20019;-60
2023/07/31 04:03:23;;;;;;;30.38;24.08;;;;;;;;;;4973556;28;20023;-63
2023/07/31 04:05:49;;;;;;;32.63;24.15;;;;;;;;;;4965270;28;20050;-64
2023/07/31 04:08:15;;;;;;;30.42;23.98;;;;;;;;;;4956272;28;20035;-63
2023/07/31 04:10:41;;;;;;;33.42;22.92;;;;;;;;;;4969156;28;20034;-63
2023/07/31 04:13:07;;;;;;;29.60;22.83;;;;;;;;;;4971722;28;20060;-63
2023/07/31 04:15:33;;;;;;;29.58;20.73;;;;;;;;;;4972965;28;20046;-62
2023/07/31 04:17:59;;;;;;;27.75;21.48;;;;;;;;;;4972336;28;20019;-64
2023/07/31 04:20:25;;;;;;;26.25;21.38;;;;;;;;;;4974588;28;20030;-64
2023/07/31 04:22:51;;;;;;;27.38;22.38;;;;;;;;;;4974861;28;20030;-63
2023/07/31 04:25:17;;;;;;;29.63;21.83;;;;;;;;;;4973700;28;20665;-61
2023/07/31 04:27:43;;;;;;;26.08;21.30;;;;;;;;;;4974482;28;20031;-61
2023/07/31 04:30:09;;;;;;;29.13;21.10;;;;;;;;;;4972541;28;20070;-63
2023/07/31 04:32:35;;;;;;;28.70;22.50;;;;;;;;;;4974394;28;20031;-63
2023/07/31 04:35:02;;;;;;;28.67;21.48;;;;;;;;;;4972482;28;20060;-62
2023/07/31 04:37:28;;;;;;;27.48;20.50;;;;;;;;;;4972677;28;20161;-63
2023/07/31 04:39:54;;;;;;;27.60;21.92;;;;;;;;;;4974119;28;20063;-64
2023/07/31 04:42:20;;;;;;;30.48;21.70;;;;;;;;;;4974000;28;20042;-62
2023/07/31 04:44:46;;;;;;;30.33;21.75;;;;;;;;;;4973407;28;20031;-62
2023/07/31 04:47:12;;;;;;;28.83;21.40;;;;;;;;;;4973906;28;20604;-62
2023/07/31 04:49:38;;;;;;;25.40;20.85;;;;;;;;;;4972808;28;20046;-63
2023/07/31 04:52:04;;;;;;;28.67;20.98;;;;;;;;;;4973557;28;20532;-62
2023/07/31 04:54:30;;;;;;;29.65;20.10;;;;;;;;;;4971362;28;20392;-63
2023/07/31 04:56:56;;;;;;;29.20;21.23;;;;;;;;;;4972033;28;20023;-61
2023/07/31 04:59:22;;;;;;;28.80;21.65;;;;;;;;;;4954513;28;20463;-59
2023/07/31 05:01:48;;;;;;;25.83;21.75;;;;;;;;;;4953377;28;20046;-63
2023/07/31 05:04:14;;;;;;;27.02;21.10;;;;;;;;;;4954279;28;20403;-65
2023/07/31 05:06:40;;;;;;;25.30;18.85;;;;;;;;;;4953873;28;20115;-62
2023/07/31 05:09:06;;;;;;;26.33;18.88;;;;;;;;;;4953175;28;20039;-62
2023/07/31 05:11:32;;;;;;;35.28;18.23;;;;;;;;;;4953085;28;20053;-62
2023/07/31 05:13:58;;;;;;;24.75;17.63;;;;;;;;;;4952922;28;20055;-59
2023/07/31 05:16:24;;;;;;;24.83;16.52;;;;;;;;;;4952581;28;20089;-63
2023/07/31 05:18:50;;;;;;;29.05;16.83;;;;;;;;;;4953969;28;20028;-62
2023/07/31 05:21:16;;;;;;;25.42;17.77;;;;;;;;;;4952817;28;20050;-63
2023/07/31 05:23:42;;;;;;;27.33;17.33;;;;;;;;;;4954155;28;20028;-62
2023/07/31 05:26:11;;;;;;;25.55;17.08;;;;;;;;;;4953619;28;20035;-61
2023/07/31 05:28:38;;;;;;;29.75;17.15;;;;;;;;;;4954134;28;20076;-62
2023/07/31 05:31:05;;;;;;;26.92;16.35;;;;;;;;;;4953512;28;20102;-63
2023/07/31 05:33:31;;;;;;;25.95;16.80;;;;;;;;;;4953019;28;20030;-58
2023/07/31 05:35:57;;;;;;;23.88;16.58;;;;;;;;;;4952783;28;20051;-63
2023/07/31 05:38:23;;;;;;;25.02;16.65;;;;;;;;;;4953312;28;20023;-64
2023/07/31 05:40:49;;;;;;;27.45;16.58;;;;;;;;;;4950829;28;20023;-63
2023/07/31 05:43:15;;;;;;;24.85;16.40;;;;;;;;;;4951390;28;20063;-63
2023/07/31 05:45:42;;;;;;;27.08;16.90;;;;;;;;;;4952328;28;20451;-63
2023/07/31 05:48:08;;;;;;;28.90;15.65;;;;;;;;;;4952383;28;20035;-64
2023/07/31 05:50:34;;;;;;;29.10;16.08;;;;;;;;;;4966572;28;20031;-65
2023/07/31 05:53:00;;;;;;;27.13;16.55;;;;;;;;;;4966210;28;20038;-64
2023/07/31 05:55:26;;;;;;;21.13;14.90;;;;;;;;;;4958013;28;20027;-63
2023/07/31 05:57:53;;;;;;;25.75;15.40;;;;;;;;;;4961397;28;20020;-62
2023/07/31 06:00:19;;;;;;;26.95;15.77;;;;;;;;;;4949318;29;20092;-65
2023/07/31 06:02:45;;;;;;;24.45;15.95;;;;;;;;;;4949893;28;20028;-64
2023/07/31 06:05:11;;;;;;;25.65;16.42;;;;;;;;;;4949183;28;20467;-63
2023/07/31 06:07:37;;;;;;;26.52;17.02;;;;;;;;;;4965054;28;20117;-63
2023/07/31 06:10:05;;;;;;;27.38;16.17;;;;;;;;;;4967625;28;20030;-64
2023/07/31 06:12:34;;;;;;;23.77;19.85;;;;;;;;;;4969336;28;20027;-64
2023/07/31 06:15:01;;;;;;;29.75;20.27;;;;;;;;;;4968434;28;20113;-64
2023/07/31 06:17:27;;;;;;;34.50;23.92;;;;;;;;;;4969287;28;20031;-63
2023/07/31 06:19:53;;;;;;;27.65;22.80;;;;;;;;;;4968880;28;20084;-63
2023/07/31 06:22:19;;;;;;;29.98;23.65;;;;;;;;;;4967889;28;20418;-64
2023/07/31 06:24:45;;;;;;;32.30;21.67;;;;;;;;;;4949409;28;20039;-65
2023/07/31 06:27:11;;;;;;;30.83;22.83;;;;;;;;;;4949605;28;20035;-63
2023/07/31 06:29:37;;;;;;;31.27;22.80;;;;;;;;;;4962334;22;20146;-60
2023/07/31 06:32:03;;;;;;;26.17;20.38;;;;;;;;;;4949817;28;20051;-60
2023/07/31 06:34:30;;;;;;;31.88;20.20;;;;;;;;;;4948892;29;20050;-60
2023/07/31 06:36:56;;;;;;;29.50;19.13;;;;;;;;;;4949679;28;20392;-58
2023/07/31 06:39:22;;;;;;;25.70;17.73;;;;;;;;;;4948108;28;20118;-59
2023/07/31 06:41:48;;;;;;;25.00;18.08;;;;;;;;;;4949354;28;20039;-59
2023/07/31 06:44:14;;;;;;;23.98;17.63;;;;;;;;;;4931615;28;20115;-57
2023/07/31 06:46:40;;;;;;;24.17;17.73;;;;;;;;;;4930567;29;20103;-57
2023/07/31 06:49:06;;;;;;;25.13;19.17;;;;;;;;;;4929160;28;20028;-58
2023/07/31 06:51:32;;;;;;;27.27;18.90;;;;;;;;;;4931535;29;20051;-59
2023/07/31 06:53:59;;;;;;;27.13;18.00;;;;;;;;;;4932902;29;20146;-59
2023/07/31 06:56:26;;;;;;;24.25;19.08;;;;;;;;;;4938215;28;20524;-59
2023/07/31 06:58:52;;;;;;;26.27;20.15;;;;;;;;;;4951241;28;20058;-59
2023/07/31 07:01:18;;;;;;;28.48;21.90;;;;;;;;;;4952151;28;20028;-59
2023/07/31 07:03:44;;;;;;;26.13;22.48;;;;;;;;;;4952221;28;20130;-59
2023/07/31 07:06:10;;;;;;;38.53;24.83;;;;;;;;;;4952015;28;20066;-59
2023/07/31 07:08:36;;;;;;;32.50;29.27;;;;;;;;;;4952269;28;20134;-59
2023/07/31 07:11:01;;;;;;;39.58;35.45;;;;;;;;;;4951202;28;20131;-59
2023/07/31 07:13:27;;;;;;;37.60;33.60;;;;;;;;;;4953708;28;20125;-56
2023/07/31 07:15:53;;;;;;;38.78;33.60;;;;;;;;;;4955085;28;20050;-57
2023/07/31 07:18:20;;;;;;;39.40;35.40;;;;;;;;;;4958150;28;20057;-55
2023/07/31 07:20:53;;;;;;;36.53;32.65;;;;;;;;;;4952503;28;20015;-56
2023/07/31 07:23:20;;;;;;;41.45;34.67;;;;;;;;;;4949142;28;20476;-56
2023/07/31 07:25:47;;;;;;;35.92;32.42;;;;;;;;;;4951364;28;20024;-54
2023/07/31 07:28:13;;;;;;;37.08;33.38;;;;;;;;;;4950706;28;20160;-53
2023/07/31 07:30:39;;;;;;;37.72;33.97;;;;;;;;;;4950827;28;20038;-56
2023/07/31 07:33:05;;;;;;;43.67;36.55;;;;;;;;;;4952216;28;20118;-57
2023/07/31 07:35:33;;;;;;;39.10;35.00;;;;;;;;;;4951355;28;20031;-58
2023/07/31 07:38:00;;;;;;;39.60;34.95;;;;;;;;;;4952024;28;20028;-55
2023/07/31 07:40:26;;;;;;;40.67;36.55;;;;;;;;;;4951355;28;20020;-56
2023/07/31 07:42:52;;;;;;;40.28;36.08;;;;;;;;;;4951799;28;20432;-58
2023/07/31 07:45:18;;;;;;;39.92;34.13;;;;;;;;;;4951131;28;20128;-55
2023/07/31 07:47:44;;;;;;;38.92;35.10;;;;;;;;;;4950358;28;20185;-59
2023/07/31 07:50:10;;;;;;;38.95;35.17;;;;;;;;;;4941082;28;20114;-56
2023/07/31 07:52:36;;;;;;;38.05;34.33;;;;;;;;;;4933533;29;20565;-56
2023/07/31 07:55:03;;;;;;;39.20;35.30;;;;;;;;;;4930600;28;20035;-61
2023/07/31 07:57:29;;;;;;;36.88;33.13;;;;;;;;;;4932208;29;20028;-59
2023/07/31 07:59:55;;;;;;;35.55;32.05;;;;;;;;;;4932530;28;20541;-61
2023/07/31 08:02:22;;;;;;;36.97;33.20;;;;;;;;;;4932550;29;20040;-61
2023/07/31 08:04:48;;;;;;;36.85;33.35;;;;;;;;;;4931438;29;20036;-59
2023/07/31 08:07:14;;;;;;;34.60;31.15;;;;;;;;;;4933437;29;20557;-58
2023/07/31 08:09:41;;;;;;;34.88;31.48;;;;;;;;;;4932289;29;20403;-60
2023/07/31 08:12:07;;;;;;;33.05;29.92;;;;;;;;;;4931007;28;20039;-59
2023/07/31 08:14:33;;;;;;;34.90;31.27;;;;;;;;;;4931652;29;20038;-61
2023/07/31 08:16:59;;;;;;;32.33;29.13;;;;;;;;;;4932750;28;20047;-62
2023/07/31 08:19:26;;;;;;;33.72;30.40;;;;;;;;;;4946486;28;20568;-57
2023/07/31 08:21:52;;;;;;;35.25;31.58;;;;;;;;;;5006721;28;20025;-59
2023/07/31 08:24:18;;;;;;;34.00;30.73;;;;;;;;;;4980637;28;20094;-59
2023/07/31 08:26:44;;;;;;;33.72;30.60;;;;;;;;;;4932446;29;20023;-60
2023/07/31 08:29:10;;;;;;;32.95;29.63;;;;;;;;;;4931261;29;20039;-59
2023/07/31 08:31:36;;;;;;;31.25;28.17;;;;;;;;;;4930857;29;20472;-58
2023/07/31 08:34:02;;;;;;;32.25;29.25;;;;;;;;;;4931382;29;20032;-61
2023/07/31 08:36:28;;;;;;;31.95;28.75;;;;;;;;;;4931423;29;20499;-63
2023/07/31 08:38:54;;;;;;;31.42;28.35;;;;;;;;;;4931976;29;20035;-61
2023/07/31 08:41:20;;;;;;;29.13;25.92;;;;;;;;;;4930777;29;20019;-62
2023/07/31 08:43:47;;;;;;;27.40;24.75;;;;;;;;;;4930812;29;20028;-61
2023/07/31 08:46:14;;;;;;;28.20;25.40;;;;;;;;;;4931767;29;20027;-60
2023/07/31 08:48:41;;;;;;;28.25;25.55;;;;;;;;;;4929460;29;20031;-58
2023/07/31 08:51:07;;;;;;;28.25;25.65;;;;;;;;;;4930463;29;20035;-60
2023/07/31 08:53:33;;;;;;;28.20;25.50;;;;;;;;;;4926270;29;20042;-61
2023/07/31 08:55:59;;;;;;;29.20;26.33;;;;;;;;;;4931581;29;20109;-62
2023/07/31 08:58:27;;;;;;;29.48;26.70;;;;;;;;;;4932250;29;20023;-62
2023/07/31 09:00:54;;;;;;;28.17;25.48;;;;;;;;;;4931276;28;20024;-57
2023/07/31 09:03:21;;;;;;;26.70;24.23;;;;;;;;;;4931866;29;20035;-59
2023/07/31 09:05:47;;;;;;;24.53;22.23;;;;;;;;;;4926931;29;20027;-59
2023/07/31 09:08:14;;;;;;;24.83;22.40;;;;;;;;;;4935729;28;20292;-58
2023/07/31 09:10:43;;;;;;;24.17;21.65;;;;;;;;;;4931759;29;20034;-60
2023/07/31 09:13:10;;;;;;;24.70;22.40;;;;;;;;;;4931965;29;20035;-58
2023/07/31 09:15:37;;;;;;;25.55;23.13;;;;;;;;;;4929930;29;20107;-58
2023/07/31 09:18:04;;;;;;;25.67;23.17;;;;;;;;;;4932574;29;20058;-60
2023/07/31 09:20:31;;;;;;;24.95;22.55;;;;;;;;;;4931395;29;20102;-57
2023/07/31 09:23:02;;;;;;;23.58;21.20;;;;;;;;;;4931281;29;20377;-62
2023/07/31 09:25:28;;;;;;;22.40;20.00;;;;;;;;;;4930670;29;20063;-58
2023/07/31 09:28:00;;;;;;;22.02;19.73;;;;;;;;;;4931196;29;20056;-62
2023/07/31 09:30:26;;;;;;;21.45;19.27;;;;;;;;;;4931366;29;20078;-60
2023/07/31 09:33:07;;;;;;;20.77;18.63;;;;;;;;;;4931195;29;20492;-60
2023/07/31 09:35:34;;;;;;;21.33;19.13;;;;;;;;;;4930552;29;20507;-55
2023/07/31 09:38:04;;;;;;;21.77;17.77;;;;;;;;;;4930035;28;20503;-58
2023/07/31 09:40:35;;;;;;;20.58;18.40;;;;;;;;;;4930732;29;20032;-59
2023/07/31 09:43:02;;;;;;;19.35;17.35;;;;;;;;;;4931051;29;20384;-58
2023/07/31 09:45:28;;;;;;;22.60;18.83;;;;;;;;;;4929684;29;20036;-60
2023/07/31 09:47:55;;;;;;;22.10;18.02;;;;;;;;;;4930892;29;20077;-49
2023/07/31 09:50:21;;;;;;;19.13;17.05;;;;;;;;;;4930721;28;20063;-52
2023/07/31 09:52:47;;;;;;;20.23;18.13;;;;;;;;;;4944880;28;20050;-50
2023/07/31 09:55:13;;;;;;;21.15;18.30;;;;;;;;;;4949178;28;20491;-51
2023/07/31 09:57:44;;;;;;;19.45;17.20;;;;;;;;;;4930300;29;20051;-52
2023/07/31 10:00:11;;;;;;;21.60;19.30;;;;;;;;;;4925349;29;20024;-54
2023/07/31 10:02:37;;;;;;;20.52;18.42;;;;;;;;;;4930412;29;20027;-52
2023/07/31 10:05:04;;;;;;;19.80;17.70;;;;;;;;;;4929702;29;20032;-48
2023/07/31 10:07:37;;;;;;;20.33;17.92;;;;;;;;;;4932208;29;20090;-51
2023/07/31 10:10:04;;;;;;;20.25;17.02;;;;;;;;;;4939457;29;20031;-47
2023/07/31 10:12:31;;;;;;;19.70;17.73;;;;;;;;;;4929618;29;20082;-48
2023/07/31 10:14:59;;;;;;;19.05;17.05;;;;;;;;;;4929954;29;20032;-48
2023/07/31 10:17:26;;;;;;;19.23;17.02;;;;;;;;;;4931108;29;20024;-50
2023/07/31 10:19:52;;;;;;;20.42;18.30;;;;;;;;;;4930813;28;20035;-48
2023/07/31 10:22:19;;;;;;;19.45;17.38;;;;;;;;;;4935294;28;20051;-50
2023/07/31 10:24:46;;;;;;;19.65;16.60;;;;;;;;;;4933783;29;20028;-51
2023/07/31 10:27:12;;;;;;;19.27;16.63;;;;;;;;;;4937201;29;20035;-50
2023/07/31 10:29:42;;;;;;;17.90;16.00;;;;;;;;;;4937139;29;20040;-49
2023/07/31 10:32:12;;;;;;;19.42;14.57;;;;;;;;;;4934511;29;20442;-49
2023/07/31 10:34:39;;;;;;;18.63;16.63;;;;;;;;;;4932252;29;20028;-51
2023/07/31 10:37:24;;;;;;;19.77;16.20;;;;;;;;;;4934657;29;20103;-51
2023/07/31 10:40:01;;;;;;;18.58;15.52;;;;;;;;;;4933606;29;20024;-52
2023/07/31 10:42:34;;;;;;;19.30;14.43;;;;;;;;;;4934030;29;20023;-51
2023/07/31 10:45:00;;;;;;;18.40;14.57;;;;;;;;;;4933563;29;20032;-51
2023/07/31 10:47:27;;;;;;;20.02;14.65;;;;;;;;;;4932541;29;20032;-49
2023/07/31 10:49:53;;;;;;;19.48;14.80;;;;;;;;;;4937283;28;20038;-53
2023/07/31 10:52:26;;;;;;;17.55;13.38;;;;;;;;;;4952554;28;20032;-51
2023/07/31 10:55:12;;;;;;;17.92;12.85;;;;;;;;;;4930860;28;20040;-52
2023/07/31 10:57:38;;;;;;;18.45;12.98;;;;;;;;;;4930981;28;20024;-51
2023/07/31 11:00:26;;;;;;;18.17;12.48;;;;;;;;;;4930893;28;20082;-54
2023/07/31 11:02:58;;;;;;;17.58;12.60;;;;;;;;;;4931497;29;20187;-51
2023/07/31 11:05:41;;;;;;;19.08;12.63;;;;;;;;;;4931507;29;20028;-52
2023/07/31 11:08:30;;;;;;;17.23;11.38;;;;;;;;;;4929976;29;20028;-50
2023/07/31 11:11:02;;;;;;;16.95;11.13;;;;;;;;;;4935983;28;20031;-48
2023/07/31 11:13:29;;;;;;;18.42;12.07;;;;;;;;;;4930493;29;20031;-52
2023/07/31 11:15:55;;;;;;;17.90;12.10;;;;;;;;;;4932084;29;20044;-51
2023/07/31 11:18:21;;;;;;;17.95;12.43;;;;;;;;;;4933475;29;20410;-54
2023/07/31 11:20:47;;;;;;;17.70;11.27;;;;;;;;;;4934555;29;20090;-54
2023/07/31 11:23:13;;;;;;;17.17;9.57;;;;;;;;;;4933028;29;20043;-50
2023/07/31 11:25:41;;;;;;;16.67;9.85;;;;;;;;;;4932460;29;20500;-52
2023/07/31 11:28:09;;;;;;;16.38;9.38;;;;;;;;;;4932890;29;20027;-52
2023/07/31 11:30:35;;;;;;;19.45;10.48;;;;;;;;;;4933449;28;20101;-54
2023/07/31 11:33:05;;;;;;;17.60;10.02;;;;;;;;;;4933007;29;20024;-51
2023/07/31 11:35:35;;;;;;;17.33;10.32;;;;;;;;;;4932315;29;20472;-51
2023/07/31 11:38:01;;;;;;;16.77;9.57;;;;;;;;;;4930478;28;20059;-48
2023/07/31 11:40:30;;;;;;;18.10;10.38;;;;;;;;;;4932501;29;20099;-56
2023/07/31 11:43:04;;;;;;;19.95;10.88;;;;;;;;;;4933100;29;20078;-54
2023/07/31 11:45:31;;;;;;;20.42;11.07;;;;;;;;;;4927313;29;20039;-51
2023/07/31 11:47:57;;;;;;;18.00;10.38;;;;;;;;;;4932035;29;20550;-55
2023/07/31 11:50:27;;;;;;;19.77;12.05;;;;;;;;;;4932505;29;20035;-57
2023/07/31 11:52:56;;;;;;;21.15;12.70;;;;;;;;;;4934599;28;20373;-61
2023/07/31 11:55:22;;;;;;;;;;;;;;;;;;4932319;29;20085;-63
2023/07/31 11:57:48;;;;;;;19.70;12.38;;;;;;;;;;4932653;29;19915;-59
2023/07/31 12:00:15;;;;;;;21.55;12.43;;;;;;;;;;4932876;29;20028;-62
2023/07/31 12:02:41;;;;;;;21.35;14.50;;;;;;;;;;4932319;29;20030;-60
2023/07/31 12:05:11;;;;;;;20.75;13.88;;;;;;;;;;4931936;29;20028;-62
2023/07/31 12:07:47;;;;;;;26.23;15.82;;;;;;;;;;4931273;29;20024;-61
2023/07/31 12:10:32;;;;;;;22.67;14.43;;;;;;;;;;4932498;29;20158;-63
2023/07/31 12:13:04;;;;;;;21.65;14.80;;;;;;;;;;4930965;29;20505;-57
2023/07/31 12:15:31;;;;;;;20.67;13.82;;;;;;;;;;4931515;29;20043;-58
2023/07/31 12:17:58;;;;;;;20.77;13.90;;;;;;;;;;4974211;28;20395;-60
2023/07/31 12:20:24;;;;;;;21.90;13.02;;;;;;;;;;5032250;28;20025;-64
2023/07/31 12:22:50;;;;;;;18.65;12.48;;;;;;;;;;4958783;28;20039;-61
2023/07/31 12:25:16;;;;;;;20.73;12.18;;;;;;;;;;4950479;28;20027;-60
2023/07/31 12:27:45;;;;;;;20.60;12.00;;;;;;;;;;4997897;28;20478;-61
2023/07/31 12:30:47;;;;;;;18.45;11.00;;;;;;;;;;5031612;28;20553;-60
2023/07/31 12:33:14;;;;;;;19.73;11.73;;;;;;;;;;4935081;28;20388;-62
2023/07/31 12:35:45;;;;;;;18.77;11.18;;;;;;;;;;5015565;28;20037;-63
2023/07/31 12:38:12;;;;;;;18.65;11.27;;;;;;;;;;5031805;28;20106;-62
2023/07/31 12:40:39;;;;;;;17.75;10.13;;;;;;;;;;5031728;28;20021;-62
2023/07/31 12:43:05;;;;;;;17.38;10.43;;;;;;;;;;4998455;28;20035;-63
2023/07/31 12:45:31;;;;;;;16.58;10.18;;;;;;;;;;4949900;28;20062;-62
2023/07/31 12:47:58;;;;;;;17.05;10.00;;;;;;;;;;4951041;28;20031;-63
2023/07/31 12:50:24;;;;;;;17.73;10.50;;;;;;;;;;4938080;28;20388;-62
2023/07/31 12:52:51;;;;;;;16.77;10.32;;;;;;;;;;4932546;28;20515;-62
2023/07/31 12:55:18;;;;;;;15.95;9.75;;;;;;;;;;4931156;29;20119;-62
2023/07/31 12:57:44;;;;;;;16.80;9.07;;;;;;;;;;4931148;29;20024;-61
2023/07/31 13:00:11;;;;;;;16.27;9.68;;;;;;;;;;5029908;28;20349;-63
2023/07/31 13:02:37;;;;;;;16.70;10.15;;;;;;;;;;4931592;29;20392;-63
2023/07/31 13:05:03;;;;;;;18.10;9.90;;;;;;;;;;4930656;29;20027;-62
2023/07/31 13:07:29;;;;;;;16.65;9.85;;;;;;;;;;5030129;28;20503;-63
2023/07/31 13:09:55;;;;;;;23.60;9.95;;;;;;;;;;4931596;29;20032;-64
2023/07/31 13:12:21;;;;;;;16.98;10.20;;;;;;;;;;4931491;29;20043;-64
2023/07/31 13:14:47;;;;;;;17.23;9.52;;;;;;;;;;4965603;28;20028;-64
2023/07/31 13:17:13;;;;;;;16.55;9.55;;;;;;;;;;4961850;28;20105;-62
2023/07/31 13:19:38;;;;;;;16.85;10.23;;;;;;;;;;4931293;28;20016;-62
2023/07/31 13:22:04;;;;;;;18.40;10.52;;;;;;;;;;4931994;29;20059;-63
2023/07/31 13:24:30;;;;;;;17.48;10.07;;;;;;;;;;4930422;29;20028;-62
2023/07/31 13:26:57;;;;;;;16.92;9.88;;;;;;;;;;4931113;29;20536;-63
2023/07/31 13:29:24;;;;;;;18.73;10.20;;;;;;;;;;4931157;29;20044;-62
2023/07/31 13:31:50;;;;;;;19.17;11.23;;;;;;;;;;4931235;29;20028;-63
2023/07/31 13:34:16;;;;;;;18.20;11.75;;;;;;;;;;4971566;28;20150;-63
2023/07/31 13:36:42;;;;;;;19.08;11.77;;;;;;;;;;4950039;28;20114;-64
2023/07/31 13:39:08;;;;;;;19.23;12.13;;;;;;;;;;4949749;28;20103;-62
2023/07/31 13:41:34;;;;;;;18.50;11.40;;;;;;;;;;4948709;28;20119;-64
2023/07/31 13:44:00;;;;;;;17.77;10.27;;;;;;;;;;4948308;28;20037;-63
2023/07/31 13:46:26;;;;;;;16.55;10.77;;;;;;;;;;4948548;28;20118;-62
2023/07/31 13:48:55;;;;;;;17.25;10.80;;;;;;;;;;4947622;28;20391;-63
2023/07/31 13:51:21;;;;;;;16.48;9.95;;;;;;;;;;4929917;29;20048;-64
2023/07/31 13:53:47;;;;;;;17.50;10.05;;;;;;;;;;4929373;28;20089;-61
2023/07/31 13:56:13;;;;;;;18.02;10.43;;;;;;;;;;4929847;29;20031;-62
2023/07/31 13:58:39;;;;;;;17.27;10.48;;;;;;;;;;4930776;29;20377;-62
2023/07/31 14:01:05;;;;;;;16.52;9.85;;;;;;;;;;4931424;29;20024;-62
2023/07/31 14:03:31;;;;;;;17.35;10.60;;;;;;;;;;4933313;28;20027;-64
2023/07/31 14:05:57;;;;;;;16.63;10.23;;;;;;;;;;4933999;29;20032;-62
2023/07/31 14:08:23;;;;;;;16.25;10.02;;;;;;;;;;4934426;29;20039;-64
2023/07/31 14:10:49;;;;;;;16.30;9.93;;;;;;;;;;4934287;29;20038;-62
2023/07/31 14:13:15;;;;;;;17.88;10.60;;;;;;;;;;4934252;28;20422;-62
2023/07/31 14:15:44;;;;;;;17.42;10.63;;;;;;;;;;4933545;29;20149;-64
2023/07/31 14:18:10;;;;;;;17.60;10.07;;;;;;;;;;4933902;29;20039;-64